sensor_id;sensor_type;location;lat;lon;timestamp;P1;durP1;ratioP1;P2;durP2;ratioP2
15261;SDS011;7733;51.554;13.590;2022-08-30T00:00:14;4.37;;;4.07;;
15261;SDS011;7733;51.554;13.590;2022-08-30T00:03:03;4.43;;;4.27;;
15261;SDS011;7733;51.554;13.590;2022-08-30T00:05:32;4.40;;;4.00;;
15261;SDS011;7733;51.554;13.590;2022-08-30T00:07:58;4.60;;;3.97;;
15261;SDS011;7733;51.554;13.590;2022-08-30T00:10:24;3.77;;;3.50;;
15261;SDS011;7733;51.554;13.590;2022-08-30T00:12:52;4.10;;;3.90;;
15261;SDS011;7733;51.554;13.590;2022-08-30T00:15:20;4.60;;;4.30;;
15261;SDS011;7733;51.554;13.590;2022-08-30T00:17:46;5.67;;;5.00;;
15261;SDS011;7733;51.554;13.590;2022-08-30T00:20:14;4.90;;;4.43;;
15261;SDS011;7733;51.554;13.590;2022-08-30T00:22:44;5.03;;;4.20;;
15261;SDS011;7733;51.554;13.590;2022-08-30T00:25:11;5.03;;;4.63;;
15261;SDS011;7733;51.554;13.590;2022-08-30T00:27:39;4.67;;;4.30;;
15261;SDS011;7733;51.554;13.590;2022-08-30T00:30:06;4.40;;;4.10;;
15261;SDS011;7733;51.554;13.590;2022-08-30T00:32:33;4.00;;;3.80;;
15261;SDS011;7733;51.554;13.590;2022-08-30T00:34:58;4.60;;;4.20;;
15261;SDS011;7733;51.554;13.590;2022-08-30T00:37:24;4.33;;;4.13;;
15261;SDS011;7733;51.554;13.590;2022-08-30T00:39:50;4.53;;;4.13;;
15261;SDS011;7733;51.554;13.590;2022-08-30T00:42:16;4.30;;;4.10;;
15261;SDS011;7733;51.554;13.590;2022-08-30T00:44:44;4.93;;;4.23;;
15261;SDS011;7733;51.554;13.590;2022-08-30T00:47:11;6.83;;;4.90;;
15261;SDS011;7733;51.554;13.590;2022-08-30T00:49:39;5.10;;;4.80;;
15261;SDS011;7733;51.554;13.590;2022-08-30T00:52:10;4.93;;;4.50;;
15261;SDS011;7733;51.554;13.590;2022-08-30T00:54:37;4.50;;;4.17;;
15261;SDS011;7733;51.554;13.590;2022-08-30T00:57:08;5.07;;;4.67;;
15261;SDS011;7733;51.554;13.590;2022-08-30T00:59:35;4.13;;;3.90;;
15261;SDS011;7733;51.554;13.590;2022-08-30T01:02:02;4.87;;;4.30;;
15261;SDS011;7733;51.554;13.590;2022-08-30T01:04:29;4.50;;;4.30;;
15261;SDS011;7733;51.554;13.590;2022-08-30T01:06:56;4.37;;;3.90;;
15261;SDS011;7733;51.554;13.590;2022-08-30T01:09:24;4.50;;;4.33;;
15261;SDS011;7733;51.554;13.590;2022-08-30T01:11:50;5.03;;;4.80;;
15261;SDS011;7733;51.554;13.590;2022-08-30T01:14:16;4.67;;;4.47;;
15261;SDS011;7733;51.554;13.590;2022-08-30T01:16:42;4.90;;;4.50;;
15261;SDS011;7733;51.554;13.590;2022-08-30T01:19:26;4.27;;;3.83;;
15261;SDS011;7733;51.554;13.590;2022-08-30T01:22:22;5.37;;;4.90;;
15261;SDS011;7733;51.554;13.590;2022-08-30T01:25:20;4.07;;;3.67;;
15261;SDS011;7733;51.554;13.590;2022-08-30T01:27:52;4.97;;;4.57;;
15261;SDS011;7733;51.554;13.590;2022-08-30T01:30:23;4.80;;;4.40;;
15261;SDS011;7733;51.554;13.590;2022-08-30T01:32:49;4.30;;;4.00;;
15261;SDS011;7733;51.554;13.590;2022-08-30T01:35:24;4.20;;;4.00;;
15261;SDS011;7733;51.554;13.590;2022-08-30T01:37:51;3.73;;;3.53;;
15261;SDS011;7733;51.554;13.590;2022-08-30T01:40:17;3.40;;;3.30;;
15261;SDS011;7733;51.554;13.590;2022-08-30T01:42:43;3.03;;;2.90;;
15261;SDS011;7733;51.554;13.590;2022-08-30T01:45:10;2.73;;;2.60;;
15261;SDS011;7733;51.554;13.590;2022-08-30T01:47:37;2.47;;;2.37;;
15261;SDS011;7733;51.554;13.590;2022-08-30T01:50:04;3.00;;;2.90;;
15261;SDS011;7733;51.554;13.590;2022-08-30T01:52:31;3.40;;;3.30;;
15261;SDS011;7733;51.554;13.590;2022-08-30T01:54:58;3.87;;;3.77;;
15261;SDS011;7733;51.554;13.590;2022-08-30T01:57:24;4.03;;;3.83;;
15261;SDS011;7733;51.554;13.590;2022-08-30T01:59:51;4.43;;;4.23;;
15261;SDS011;7733;51.554;13.590;2022-08-30T02:02:20;3.80;;;3.60;;
15261;SDS011;7733;51.554;13.590;2022-08-30T02:04:51;4.23;;;3.93;;
15261;SDS011;7733;51.554;13.590;2022-08-30T02:07:18;4.30;;;3.97;;
15261;SDS011;7733;51.554;13.590;2022-08-30T02:09:45;4.37;;;3.97;;
15261;SDS011;7733;51.554;13.590;2022-08-30T02:12:12;3.90;;;3.70;;
15261;SDS011;7733;51.554;13.590;2022-08-30T02:14:38;4.50;;;4.17;;
15261;SDS011;7733;51.554;13.590;2022-08-30T02:17:04;5.43;;;4.47;;
15261;SDS011;7733;51.554;13.590;2022-08-30T02:19:34;4.00;;;3.80;;
15261;SDS011;7733;51.554;13.590;2022-08-30T02:22:00;4.20;;;4.00;;
15261;SDS011;7733;51.554;13.590;2022-08-30T02:24:25;4.10;;;3.90;;
15261;SDS011;7733;51.554;13.590;2022-08-30T02:26:52;4.10;;;3.80;;
15261;SDS011;7733;51.554;13.590;2022-08-30T02:29:18;4.33;;;4.03;;
15261;SDS011;7733;51.554;13.590;2022-08-30T02:31:46;4.20;;;3.90;;
15261;SDS011;7733;51.554;13.590;2022-08-30T02:34:11;4.67;;;4.37;;
15261;SDS011;7733;51.554;13.590;2022-08-30T02:36:37;4.13;;;3.93;;
15261;SDS011;7733;51.554;13.590;2022-08-30T02:39:06;4.00;;;3.80;;
15261;SDS011;7733;51.554;13.590;2022-08-30T02:41:34;4.10;;;3.87;;
15261;SDS011;7733;51.554;13.590;2022-08-30T02:44:00;3.40;;;3.20;;
15261;SDS011;7733;51.554;13.590;2022-08-30T02:46:26;3.00;;;2.90;;
15261;SDS011;7733;51.554;13.590;2022-08-30T02:48:52;3.40;;;3.20;;
15261;SDS011;7733;51.554;13.590;2022-08-30T02:51:18;3.50;;;3.37;;
15261;SDS011;7733;51.554;13.590;2022-08-30T02:53:44;3.93;;;3.83;;
15261;SDS011;7733;51.554;13.590;2022-08-30T02:56:10;3.63;;;3.47;;
15261;SDS011;7733;51.554;13.590;2022-08-30T02:58:38;4.07;;;3.77;;
15261;SDS011;7733;51.554;13.590;2022-08-30T03:01:06;3.70;;;3.50;;
15261;SDS011;7733;51.554;13.590;2022-08-30T03:03:36;3.73;;;3.53;;
15261;SDS011;7733;51.554;13.590;2022-08-30T03:06:01;3.70;;;3.60;;
15261;SDS011;7733;51.554;13.590;2022-08-30T03:08:27;3.70;;;3.40;;
15261;SDS011;7733;51.554;13.590;2022-08-30T03:10:54;3.67;;;3.37;;
15261;SDS011;7733;51.554;13.590;2022-08-30T03:13:21;3.30;;;3.10;;
15261;SDS011;7733;51.554;13.590;2022-08-30T03:15:48;6.47;;;3.43;;
15261;SDS011;7733;51.554;13.590;2022-08-30T03:18:14;3.10;;;3.00;;
15261;SDS011;7733;51.554;13.590;2022-08-30T03:20:43;3.20;;;3.10;;
15261;SDS011;7733;51.554;13.590;2022-08-30T03:23:10;3.27;;;3.13;;
15261;SDS011;7733;51.554;13.590;2022-08-30T03:25:36;3.37;;;3.07;;
15261;SDS011;7733;51.554;13.590;2022-08-30T03:28:03;3.20;;;3.00;;
15261;SDS011;7733;51.554;13.590;2022-08-30T03:30:30;3.07;;;2.97;;
15261;SDS011;7733;51.554;13.590;2022-08-30T03:32:57;3.40;;;3.20;;
15261;SDS011;7733;51.554;13.590;2022-08-30T03:35:23;3.97;;;3.83;;
15261;SDS011;7733;51.554;13.590;2022-08-30T03:37:49;4.23;;;4.03;;
15261;SDS011;7733;51.554;13.590;2022-08-30T03:40:15;4.57;;;4.30;;
15261;SDS011;7733;51.554;13.590;2022-08-30T03:42:43;4.33;;;4.03;;
15261;SDS011;7733;51.554;13.590;2022-08-30T03:45:11;4.80;;;4.50;;
15261;SDS011;7733;51.554;13.590;2022-08-30T03:47:39;4.53;;;4.33;;
15261;SDS011;7733;51.554;13.590;2022-08-30T03:50:05;5.50;;;4.70;;
15261;SDS011;7733;51.554;13.590;2022-08-30T03:52:31;4.43;;;4.03;;
15261;SDS011;7733;51.554;13.590;2022-08-30T03:54:57;4.33;;;4.03;;
15261;SDS011;7733;51.554;13.590;2022-08-30T03:57:24;3.90;;;3.70;;
15261;SDS011;7733;51.554;13.590;2022-08-30T03:59:50;4.40;;;4.10;;
15261;SDS011;7733;51.554;13.590;2022-08-30T04:02:16;4.57;;;4.30;;
15261;SDS011;7733;51.554;13.590;2022-08-30T04:04:42;5.63;;;4.47;;
15261;SDS011;7733;51.554;13.590;2022-08-30T04:07:08;4.80;;;4.50;;
15261;SDS011;7733;51.554;13.590;2022-08-30T04:09:33;5.43;;;5.13;;
15261;SDS011;7733;51.554;13.590;2022-08-30T04:11:59;5.00;;;4.70;;
15261;SDS011;7733;51.554;13.590;2022-08-30T04:14:25;5.07;;;4.70;;
15261;SDS011;7733;51.554;13.590;2022-08-30T04:16:51;5.20;;;4.90;;
15261;SDS011;7733;51.554;13.590;2022-08-30T04:19:17;6.00;;;4.50;;
15261;SDS011;7733;51.554;13.590;2022-08-30T04:21:43;3.90;;;3.70;;
15261;SDS011;7733;51.554;13.590;2022-08-30T04:24:09;4.40;;;4.00;;
15261;SDS011;7733;51.554;13.590;2022-08-30T04:26:36;4.30;;;3.93;;
15261;SDS011;7733;51.554;13.590;2022-08-30T04:29:02;4.03;;;3.83;;
15261;SDS011;7733;51.554;13.590;2022-08-30T04:31:28;4.40;;;4.10;;
15261;SDS011;7733;51.554;13.590;2022-08-30T04:33:54;4.43;;;4.13;;
15261;SDS011;7733;51.554;13.590;2022-08-30T04:36:20;4.27;;;3.90;;
15261;SDS011;7733;51.554;13.590;2022-08-30T04:38:46;4.90;;;4.43;;
15261;SDS011;7733;51.554;13.590;2022-08-30T04:41:14;4.23;;;3.93;;
15261;SDS011;7733;51.554;13.590;2022-08-30T04:43:43;5.77;;;5.47;;
15261;SDS011;7733;51.554;13.590;2022-08-30T04:46:11;4.57;;;4.13;;
15261;SDS011;7733;51.554;13.590;2022-08-30T04:48:38;4.30;;;4.10;;
15261;SDS011;7733;51.554;13.590;2022-08-30T04:51:08;4.03;;;3.70;;
15261;SDS011;7733;51.554;13.590;2022-08-30T04:53:37;4.97;;;4.67;;
15261;SDS011;7733;51.554;13.590;2022-08-30T04:56:08;4.13;;;3.60;;
15261;SDS011;7733;51.554;13.590;2022-08-30T04:58:40;3.90;;;3.70;;
15261;SDS011;7733;51.554;13.590;2022-08-30T05:01:10;4.43;;;4.23;;
15261;SDS011;7733;51.554;13.590;2022-08-30T05:03:45;5.10;;;4.67;;
15261;SDS011;7733;51.554;13.590;2022-08-30T05:06:12;4.60;;;4.40;;
15261;SDS011;7733;51.554;13.590;2022-08-30T05:08:38;5.17;;;4.87;;
15261;SDS011;7733;51.554;13.590;2022-08-30T05:11:04;7.00;;;5.10;;
15261;SDS011;7733;51.554;13.590;2022-08-30T05:13:32;6.37;;;4.10;;
15261;SDS011;7733;51.554;13.590;2022-08-30T05:15:59;4.43;;;4.20;;
15261;SDS011;7733;51.554;13.590;2022-08-30T05:18:25;5.37;;;5.07;;
15261;SDS011;7733;51.554;13.590;2022-08-30T05:21:12;5.40;;;4.90;;
15261;SDS011;7733;51.554;13.590;2022-08-30T05:23:44;5.23;;;4.80;;
15261;SDS011;7733;51.554;13.590;2022-08-30T05:28:42;7.00;;;6.50;;
15261;SDS011;7733;51.554;13.590;2022-08-30T05:31:16;5.87;;;5.47;;
15261;SDS011;7733;51.554;13.590;2022-08-30T05:33:46;6.90;;;5.67;;
15261;SDS011;7733;51.554;13.590;2022-08-30T05:36:14;6.63;;;6.13;;
15261;SDS011;7733;51.554;13.590;2022-08-30T05:38:42;8.43;;;7.83;;
15261;SDS011;7733;51.554;13.590;2022-08-30T05:41:09;8.40;;;7.80;;
15261;SDS011;7733;51.554;13.590;2022-08-30T05:43:35;8.87;;;8.07;;
15261;SDS011;7733;51.554;13.590;2022-08-30T05:46:04;8.73;;;8.07;;
15261;SDS011;7733;51.554;13.590;2022-08-30T05:48:34;8.03;;;7.37;;
15261;SDS011;7733;51.554;13.590;2022-08-30T05:51:05;7.47;;;6.97;;
15261;SDS011;7733;51.554;13.590;2022-08-30T05:53:34;7.50;;;6.70;;
15261;SDS011;7733;51.554;13.590;2022-08-30T05:56:01;7.37;;;6.87;;
15261;SDS011;7733;51.554;13.590;2022-08-30T05:58:29;8.27;;;7.67;;
15261;SDS011;7733;51.554;13.590;2022-08-30T06:00:56;11.33;;;8.13;;
15261;SDS011;7733;51.554;13.590;2022-08-30T06:03:22;8.83;;;8.20;;
15261;SDS011;7733;51.554;13.590;2022-08-30T06:05:49;9.20;;;8.40;;
15261;SDS011;7733;51.554;13.590;2022-08-30T06:08:14;9.80;;;9.10;;
15261;SDS011;7733;51.554;13.590;2022-08-30T06:10:40;9.33;;;8.57;;
15261;SDS011;7733;51.554;13.590;2022-08-30T06:13:06;10.53;;;9.53;;
15261;SDS011;7733;51.554;13.590;2022-08-30T06:15:31;9.90;;;9.20;;
15261;SDS011;7733;51.554;13.590;2022-08-30T06:17:57;8.97;;;8.20;;
15261;SDS011;7733;51.554;13.590;2022-08-30T06:20:22;8.73;;;8.20;;
15261;SDS011;7733;51.554;13.590;2022-08-30T06:22:48;9.27;;;8.47;;
15261;SDS011;7733;51.554;13.590;2022-08-30T06:25:14;8.87;;;8.17;;
15261;SDS011;7733;51.554;13.590;2022-08-30T06:27:41;10.13;;;9.23;;
15261;SDS011;7733;51.554;13.590;2022-08-30T06:30:07;11.40;;;10.40;;
15261;SDS011;7733;51.554;13.590;2022-08-30T06:32:35;9.97;;;9.17;;
15261;SDS011;7733;51.554;13.590;2022-08-30T06:35:02;9.77;;;8.93;;
15261;SDS011;7733;51.554;13.590;2022-08-30T06:37:29;11.33;;;10.37;;
15261;SDS011;7733;51.554;13.590;2022-08-30T06:39:57;11.50;;;10.60;;
15261;SDS011;7733;51.554;13.590;2022-08-30T06:42:25;11.17;;;10.27;;
15261;SDS011;7733;51.554;13.590;2022-08-30T06:44:56;11.47;;;10.40;;
15261;SDS011;7733;51.554;13.590;2022-08-30T06:47:24;13.07;;;11.50;;
15261;SDS011;7733;51.554;13.590;2022-08-30T06:49:49;13.10;;;11.97;;
15261;SDS011;7733;51.554;13.590;2022-08-30T06:52:15;13.00;;;11.90;;
15261;SDS011;7733;51.554;13.590;2022-08-30T06:54:40;12.07;;;10.97;;
15261;SDS011;7733;51.554;13.590;2022-08-30T06:57:06;12.37;;;11.03;;
15261;SDS011;7733;51.554;13.590;2022-08-30T06:59:32;12.20;;;11.30;;
15261;SDS011;7733;51.554;13.590;2022-08-30T07:01:57;13.03;;;12.00;;
15261;SDS011;7733;51.554;13.590;2022-08-30T07:04:23;12.83;;;11.63;;
15261;SDS011;7733;51.554;13.590;2022-08-30T07:06:50;12.53;;;11.53;;
15261;SDS011;7733;51.554;13.590;2022-08-30T07:09:16;12.20;;;11.10;;
15261;SDS011;7733;51.554;13.590;2022-08-30T07:11:42;11.87;;;10.97;;
15261;SDS011;7733;51.554;13.590;2022-08-30T07:14:08;12.20;;;11.30;;
15261;SDS011;7733;51.554;13.590;2022-08-30T07:16:35;12.93;;;11.93;;
15261;SDS011;7733;51.554;13.590;2022-08-30T07:19:01;12.97;;;11.87;;
15261;SDS011;7733;51.554;13.590;2022-08-30T07:21:39;11.27;;;10.40;;
15261;SDS011;7733;51.554;13.590;2022-08-30T07:24:07;12.50;;;11.30;;
15261;SDS011;7733;51.554;13.590;2022-08-30T07:26:35;12.23;;;11.13;;
15261;SDS011;7733;51.554;13.590;2022-08-30T07:29:08;11.40;;;10.60;;
15261;SDS011;7733;51.554;13.590;2022-08-30T07:31:35;10.97;;;10.17;;
15261;SDS011;7733;51.554;13.590;2022-08-30T07:34:02;9.53;;;8.83;;
15261;SDS011;7733;51.554;13.590;2022-08-30T07:36:29;9.17;;;8.47;;
15261;SDS011;7733;51.554;13.590;2022-08-30T07:38:55;9.47;;;8.70;;
15261;SDS011;7733;51.554;13.590;2022-08-30T07:41:31;10.13;;;9.27;;
15261;SDS011;7733;51.554;13.590;2022-08-30T07:44:02;10.40;;;9.47;;
15261;SDS011;7733;51.554;13.590;2022-08-30T07:46:28;9.37;;;8.67;;
15261;SDS011;7733;51.554;13.590;2022-08-30T07:48:54;9.70;;;8.93;;
15261;SDS011;7733;51.554;13.590;2022-08-30T07:51:21;10.13;;;8.93;;
15261;SDS011;7733;51.554;13.590;2022-08-30T07:53:50;10.13;;;9.43;;
15261;SDS011;7733;51.554;13.590;2022-08-30T07:56:16;8.53;;;7.73;;
15261;SDS011;7733;51.554;13.590;2022-08-30T07:58:42;9.37;;;8.67;;
15261;SDS011;7733;51.554;13.590;2022-08-30T08:01:08;9.23;;;8.53;;
15261;SDS011;7733;51.554;13.590;2022-08-30T08:03:37;10.33;;;9.50;;
15261;SDS011;7733;51.554;13.590;2022-08-30T08:06:05;8.67;;;7.97;;
15261;SDS011;7733;51.554;13.590;2022-08-30T08:08:34;9.80;;;9.10;;
15261;SDS011;7733;51.554;13.590;2022-08-30T08:11:20;8.13;;;7.53;;
15261;SDS011;7733;51.554;13.590;2022-08-30T08:13:50;8.13;;;7.53;;
15261;SDS011;7733;51.554;13.590;2022-08-30T08:16:17;9.27;;;8.40;;
15261;SDS011;7733;51.554;13.590;2022-08-30T08:18:43;9.00;;;8.30;;
15261;SDS011;7733;51.554;13.590;2022-08-30T08:21:09;8.73;;;8.03;;
15261;SDS011;7733;51.554;13.590;2022-08-30T08:23:35;8.47;;;7.93;;
15261;SDS011;7733;51.554;13.590;2022-08-30T08:26:01;9.10;;;8.50;;
15261;SDS011;7733;51.554;13.590;2022-08-30T08:28:27;8.73;;;8.13;;
15261;SDS011;7733;51.554;13.590;2022-08-30T08:30:53;8.80;;;8.10;;
15261;SDS011;7733;51.554;13.590;2022-08-30T08:33:19;9.07;;;8.47;;
15261;SDS011;7733;51.554;13.590;2022-08-30T08:35:47;8.97;;;8.37;;
15261;SDS011;7733;51.554;13.590;2022-08-30T08:38:13;8.03;;;7.50;;
15261;SDS011;7733;51.554;13.590;2022-08-30T08:40:46;8.53;;;7.93;;
15261;SDS011;7733;51.554;13.590;2022-08-30T08:43:27;8.17;;;7.53;;
15261;SDS011;7733;51.554;13.590;2022-08-30T08:48:40;8.37;;;7.67;;
15261;SDS011;7733;51.554;13.590;2022-08-30T08:51:12;8.40;;;7.80;;
15261;SDS011;7733;51.554;13.590;2022-08-30T08:54:01;8.23;;;7.63;;
15261;SDS011;7733;51.554;13.590;2022-08-30T08:56:35;8.10;;;7.50;;
15261;SDS011;7733;51.554;13.590;2022-08-30T08:59:02;8.37;;;7.77;;
15261;SDS011;7733;51.554;13.590;2022-08-30T09:01:32;7.90;;;7.40;;
15261;SDS011;7733;51.554;13.590;2022-08-30T09:04:01;8.43;;;7.93;;
15261;SDS011;7733;51.554;13.590;2022-08-30T09:06:39;8.83;;;8.23;;
15261;SDS011;7733;51.554;13.590;2022-08-30T09:09:17;8.60;;;8.00;;
15261;SDS011;7733;51.554;13.590;2022-08-30T09:11:47;7.77;;;7.17;;
15261;SDS011;7733;51.554;13.590;2022-08-30T09:14:20;7.47;;;7.03;;
15261;SDS011;7733;51.554;13.590;2022-08-30T09:19:44;7.53;;;7.13;;
15261;SDS011;7733;51.554;13.590;2022-08-30T09:22:31;7.07;;;6.67;;
15261;SDS011;7733;51.554;13.590;2022-08-30T09:28:07;6.73;;;6.33;;
15261;SDS011;7733;51.554;13.590;2022-08-30T09:30:36;7.40;;;7.00;;
15261;SDS011;7733;51.554;13.590;2022-08-30T09:33:04;7.43;;;7.03;;
15261;SDS011;7733;51.554;13.590;2022-08-30T09:35:45;7.80;;;7.30;;
15261;SDS011;7733;51.554;13.590;2022-08-30T09:38:17;8.37;;;7.80;;
15261;SDS011;7733;51.554;13.590;2022-08-30T09:40:51;9.00;;;8.40;;
15261;SDS011;7733;51.554;13.590;2022-08-30T09:43:27;9.63;;;8.97;;
15261;SDS011;7733;51.554;13.590;2022-08-30T09:53:35;9.10;;;8.50;;
15261;SDS011;7733;51.554;13.590;2022-08-30T09:59:48;11.00;;;10.10;;
15261;SDS011;7733;51.554;13.590;2022-08-30T10:05:51;12.73;;;11.63;;
15261;SDS011;7733;51.554;13.590;2022-08-30T10:08:34;14.53;;;13.17;;
15261;SDS011;7733;51.554;13.590;2022-08-30T10:14:27;14.73;;;13.23;;
15261;SDS011;7733;51.554;13.590;2022-08-30T10:23:05;14.33;;;13.07;;
15261;SDS011;7733;51.554;13.590;2022-08-30T10:25:41;12.47;;;11.47;;
15261;SDS011;7733;51.554;13.590;2022-08-30T10:28:17;9.63;;;8.93;;
15261;SDS011;7733;51.554;13.590;2022-08-30T10:31:10;10.10;;;9.40;;
15261;SDS011;7733;51.554;13.590;2022-08-30T10:33:49;9.30;;;8.70;;
15261;SDS011;7733;51.554;13.590;2022-08-30T10:36:25;8.10;;;7.50;;
15261;SDS011;7733;51.554;13.590;2022-08-30T10:39:00;7.67;;;7.17;;
15261;SDS011;7733;51.554;13.590;2022-08-30T10:41:35;8.83;;;8.33;;
15261;SDS011;7733;51.554;13.590;2022-08-30T10:44:21;9.50;;;8.80;;
15261;SDS011;7733;51.554;13.590;2022-08-30T10:47:17;7.20;;;6.80;;
15261;SDS011;7733;51.554;13.590;2022-08-30T10:50:09;7.67;;;7.07;;
15261;SDS011;7733;51.554;13.590;2022-08-30T10:52:52;6.73;;;6.30;;
15261;SDS011;7733;51.554;13.590;2022-08-30T10:55:29;7.27;;;6.87;;
15261;SDS011;7733;51.554;13.590;2022-08-30T10:58:02;6.17;;;5.77;;
15261;SDS011;7733;51.554;13.590;2022-08-30T11:00:38;5.73;;;5.30;;
15261;SDS011;7733;51.554;13.590;2022-08-30T11:06:39;5.40;;;5.10;;
15261;SDS011;7733;51.554;13.590;2022-08-30T11:12:21;4.40;;;4.20;;
15261;SDS011;7733;51.554;13.590;2022-08-30T11:15:16;3.43;;;3.23;;
15261;SDS011;7733;51.554;13.590;2022-08-30T11:20:37;3.80;;;3.60;;
15261;SDS011;7733;51.554;13.590;2022-08-30T11:23:28;3.20;;;3.00;;
15261;SDS011;7733;51.554;13.590;2022-08-30T11:25:59;2.70;;;2.60;;
15261;SDS011;7733;51.554;13.590;2022-08-30T11:33:48;2.90;;;2.80;;
15261;SDS011;7733;51.554;13.590;2022-08-30T11:39:09;3.00;;;2.70;;
15261;SDS011;7733;51.554;13.590;2022-08-30T11:47:50;2.43;;;2.33;;
15261;SDS011;7733;51.554;13.590;2022-08-30T11:50:54;2.70;;;2.60;;
15261;SDS011;7733;51.554;13.590;2022-08-30T11:59:03;2.03;;;1.93;;
15261;SDS011;7733;51.554;13.590;2022-08-30T12:01:46;2.03;;;2.03;;
15261;SDS011;7733;51.554;13.590;2022-08-30T12:06:49;3.70;;;1.77;;
15261;SDS011;7733;51.554;13.590;2022-08-30T12:14:56;2.00;;;1.90;;
15261;SDS011;7733;51.554;13.590;2022-08-30T12:17:32;3.47;;;2.30;;
15261;SDS011;7733;51.554;13.590;2022-08-30T12:20:45;1.90;;;1.90;;
15261;SDS011;7733;51.554;13.590;2022-08-30T12:23:18;1.30;;;1.30;;
15261;SDS011;7733;51.554;13.590;2022-08-30T12:26:10;1.30;;;1.17;;
15261;SDS011;7733;51.554;13.590;2022-08-30T12:28:48;1.10;;;1.10;;
15261;SDS011;7733;51.554;13.590;2022-08-30T12:31:23;3.40;;;1.23;;
15261;SDS011;7733;51.554;13.590;2022-08-30T12:33:54;1.60;;;1.60;;
15261;SDS011;7733;51.554;13.590;2022-08-30T12:36:40;1.80;;;1.70;;
15261;SDS011;7733;51.554;13.590;2022-08-30T12:41:43;1.90;;;1.90;;
15261;SDS011;7733;51.554;13.590;2022-08-30T12:44:14;3.87;;;2.20;;
15261;SDS011;7733;51.554;13.590;2022-08-30T12:46:44;2.50;;;2.30;;
15261;SDS011;7733;51.554;13.590;2022-08-30T12:49:15;2.30;;;2.13;;
15261;SDS011;7733;51.554;13.590;2022-08-30T12:51:45;2.20;;;2.20;;
15261;SDS011;7733;51.554;13.590;2022-08-30T12:54:13;2.20;;;2.10;;
15261;SDS011;7733;51.554;13.590;2022-08-30T12:56:44;1.90;;;1.90;;
15261;SDS011;7733;51.554;13.590;2022-08-30T12:59:45;1.90;;;1.90;;
15261;SDS011;7733;51.554;13.590;2022-08-30T13:02:18;2.00;;;1.90;;
15261;SDS011;7733;51.554;13.590;2022-08-30T13:08:13;2.20;;;2.00;;
15261;SDS011;7733;51.554;13.590;2022-08-30T13:10:50;2.20;;;2.10;;
15261;SDS011;7733;51.554;13.590;2022-08-30T13:13:37;2.20;;;2.10;;
15261;SDS011;7733;51.554;13.590;2022-08-30T13:16:20;2.20;;;2.10;;
15261;SDS011;7733;51.554;13.590;2022-08-30T13:21:58;2.20;;;2.10;;
15261;SDS011;7733;51.554;13.590;2022-08-30T13:24:26;2.20;;;2.20;;
15261;SDS011;7733;51.554;13.590;2022-08-30T13:26:55;2.10;;;2.10;;
15261;SDS011;7733;51.554;13.590;2022-08-30T13:29:30;2.03;;;2.03;;
15261;SDS011;7733;51.554;13.590;2022-08-30T13:31:56;1.97;;;1.80;;
15261;SDS011;7733;51.554;13.590;2022-08-30T13:34:21;1.77;;;1.77;;
15261;SDS011;7733;51.554;13.590;2022-08-30T13:36:55;1.97;;;1.87;;
15261;SDS011;7733;51.554;13.590;2022-08-30T13:39:22;1.63;;;1.60;;
15261;SDS011;7733;51.554;13.590;2022-08-30T13:41:49;2.03;;;1.93;;
15261;SDS011;7733;51.554;13.590;2022-08-30T13:44:15;2.00;;;1.90;;
15261;SDS011;7733;51.554;13.590;2022-08-30T13:46:42;1.50;;;1.50;;
15261;SDS011;7733;51.554;13.590;2022-08-30T13:49:23;1.80;;;1.70;;
15261;SDS011;7733;51.554;13.590;2022-08-30T13:51:54;1.93;;;1.83;;
15261;SDS011;7733;51.554;13.590;2022-08-30T13:54:20;1.43;;;1.43;;
15261;SDS011;7733;51.554;13.590;2022-08-30T13:56:50;1.70;;;1.70;;
15261;SDS011;7733;51.554;13.590;2022-08-30T13:59:18;1.80;;;1.80;;
15261;SDS011;7733;51.554;13.590;2022-08-30T14:01:45;1.60;;;1.60;;
15261;SDS011;7733;51.554;13.590;2022-08-30T14:04:13;1.77;;;1.53;;
15261;SDS011;7733;51.554;13.590;2022-08-30T14:06:39;2.40;;;1.50;;
15261;SDS011;7733;51.554;13.590;2022-08-30T14:09:06;1.40;;;1.40;;
15261;SDS011;7733;51.554;13.590;2022-08-30T14:11:34;1.50;;;1.43;;
15261;SDS011;7733;51.554;13.590;2022-08-30T14:14:00;1.40;;;1.23;;
15261;SDS011;7733;51.554;13.590;2022-08-30T14:16:26;1.50;;;1.50;;
15261;SDS011;7733;51.554;13.590;2022-08-30T14:18:52;3.60;;;1.50;;
15261;SDS011;7733;51.554;13.590;2022-08-30T14:21:19;1.33;;;1.23;;
15261;SDS011;7733;51.554;13.590;2022-08-30T14:23:45;1.70;;;1.60;;
15261;SDS011;7733;51.554;13.590;2022-08-30T14:26:15;1.37;;;1.30;;
15261;SDS011;7733;51.554;13.590;2022-08-30T14:28:46;1.30;;;1.30;;
15261;SDS011;7733;51.554;13.590;2022-08-30T14:31:12;1.50;;;1.50;;
15261;SDS011;7733;51.554;13.590;2022-08-30T14:33:40;1.40;;;1.40;;
15261;SDS011;7733;51.554;13.590;2022-08-30T14:36:06;2.07;;;1.70;;
15261;SDS011;7733;51.554;13.590;2022-08-30T14:38:33;3.17;;;1.80;;
15261;SDS011;7733;51.554;13.590;2022-08-30T14:41:00;2.10;;;1.70;;
15261;SDS011;7733;51.554;13.590;2022-08-30T14:43:28;1.43;;;1.40;;
15261;SDS011;7733;51.554;13.590;2022-08-30T14:45:56;1.47;;;1.47;;
15261;SDS011;7733;51.554;13.590;2022-08-30T14:48:23;1.73;;;1.70;;
15261;SDS011;7733;51.554;13.590;2022-08-30T14:50:49;1.50;;;1.40;;
15261;SDS011;7733;51.554;13.590;2022-08-30T14:53:15;1.53;;;1.53;;
15261;SDS011;7733;51.554;13.590;2022-08-30T14:55:40;1.70;;;1.70;;
15261;SDS011;7733;51.554;13.590;2022-08-30T14:58:06;5.90;;;2.30;;
15261;SDS011;7733;51.554;13.590;2022-08-30T15:00:34;6.87;;;2.33;;
15261;SDS011;7733;51.554;13.590;2022-08-30T15:03:01;1.50;;;1.40;;
15261;SDS011;7733;51.554;13.590;2022-08-30T15:05:27;1.37;;;1.37;;
15261;SDS011;7733;51.554;13.590;2022-08-30T15:07:52;1.60;;;1.60;;
15261;SDS011;7733;51.554;13.590;2022-08-30T15:10:19;1.70;;;1.60;;
15261;SDS011;7733;51.554;13.590;2022-08-30T15:12:49;1.27;;;1.27;;
15261;SDS011;7733;51.554;13.590;2022-08-30T15:15:18;2.07;;;1.97;;
15261;SDS011;7733;51.554;13.590;2022-08-30T15:17:47;10.57;;;2.43;;
15261;SDS011;7733;51.554;13.590;2022-08-30T15:20:14;2.10;;;2.00;;
15261;SDS011;7733;51.554;13.590;2022-08-30T15:22:44;2.33;;;1.57;;
15261;SDS011;7733;51.554;13.590;2022-08-30T15:25:10;1.60;;;1.60;;
15261;SDS011;7733;51.554;13.590;2022-08-30T15:27:36;2.07;;;1.90;;
15261;SDS011;7733;51.554;13.590;2022-08-30T15:30:03;9.13;;;2.77;;
15261;SDS011;7733;51.554;13.590;2022-08-30T15:32:30;4.17;;;2.13;;
15261;SDS011;7733;51.554;13.590;2022-08-30T15:34:56;2.20;;;2.10;;
15261;SDS011;7733;51.554;13.590;2022-08-30T15:37:23;2.17;;;2.07;;
15261;SDS011;7733;51.554;13.590;2022-08-30T15:39:50;2.20;;;2.10;;
15261;SDS011;7733;51.554;13.590;2022-08-30T15:42:16;2.53;;;2.43;;
15261;SDS011;7733;51.554;13.590;2022-08-30T15:44:44;2.50;;;2.40;;
15261;SDS011;7733;51.554;13.590;2022-08-30T15:47:14;2.20;;;2.20;;
15261;SDS011;7733;51.554;13.590;2022-08-30T15:49:40;2.50;;;2.40;;
15261;SDS011;7733;51.554;13.590;2022-08-30T15:52:06;2.60;;;2.50;;
15261;SDS011;7733;51.554;13.590;2022-08-30T15:54:32;2.60;;;2.50;;
15261;SDS011;7733;51.554;13.590;2022-08-30T15:56:57;2.80;;;2.70;;
15261;SDS011;7733;51.554;13.590;2022-08-30T15:59:24;3.33;;;3.23;;
15261;SDS011;7733;51.554;13.590;2022-08-30T16:01:55;3.47;;;3.33;;
15261;SDS011;7733;51.554;13.590;2022-08-30T16:04:20;4.00;;;3.73;;
15261;SDS011;7733;51.554;13.590;2022-08-30T16:06:46;4.00;;;3.90;;
15261;SDS011;7733;51.554;13.590;2022-08-30T16:09:13;4.13;;;3.83;;
15261;SDS011;7733;51.554;13.590;2022-08-30T16:11:39;3.80;;;3.70;;
15261;SDS011;7733;51.554;13.590;2022-08-30T16:14:05;4.37;;;4.17;;
15261;SDS011;7733;51.554;13.590;2022-08-30T16:16:32;4.37;;;4.00;;
15261;SDS011;7733;51.554;13.590;2022-08-30T16:18:58;4.13;;;4.03;;
15261;SDS011;7733;51.554;13.590;2022-08-30T16:21:28;3.60;;;3.50;;